Time;durP1;ratioP1;P1;durP2;ratioP2;P2;SDS_P1;SDS_P2;PMS_P1;PMS_P2;Temp;Humidity;BMP_temperature;BMP_pressure;BME280_temperature;BME280_humidity;BME280_pressure;Samples;Min_cycle;Max_cycle;Signal;HPM_P1;HPM_P2
2023/08/13 00:03:40;;;;;;;6.40;5.10;;;;;;;18.67;61.08;99586.02;434466;1256;170298;-58
2023/08/13 00:13:46;;;;;;;5.90;4.30;;;;;;;18.70;61.22;99578.11;434388;1258;141661;-58
2023/08/13 00:23:52;;;;;;;7.50;4.10;;;;;;;18.74;61.34;99577.89;434279;1257;139935;-59
2023/08/13 00:33:58;;;;;;;5.30;4.60;;;;;;;18.77;61.37;99573.13;434047;1260;139800;-59
2023/08/13 00:44:04;;;;;;;5.00;3.70;;;;;;;18.81;61.41;99575.95;433826;1260;140072;-58
2023/08/13 00:54:10;;;;;;;3.80;3.50;;;;;;;18.82;61.49;99577.23;433946;1260;139853;-58
2023/08/13 01:04:16;;;;;;;6.70;4.40;;;;;;;18.83;61.62;99571.85;434314;1260;138986;-57
2023/08/13 01:14:27;;;;;;;4.40;3.80;;;;;;;18.84;61.72;99568.70;434429;1257;139354;-58
2023/08/13 01:24:33;;;;;;;5.80;3.90;;;;;;;18.88;62.25;99561.61;434036;1260;139501;-58
2023/08/13 01:34:39;;;;;;;4.90;3.60;;;;;;;18.89;62.85;99553.39;433816;1260;138901;-58
2023/08/13 01:44:45;;;;;;;4.30;3.50;;;;;;;18.81;63.31;99548.79;434204;1260;139252;-58
2023/08/13 01:54:51;;;;;;;3.50;3.20;;;;;;;18.69;63.67;99553.15;433963;1259;139225;-58
2023/08/13 02:04:57;;;;;;;3.70;3.40;;;;;;;18.60;64.46;99548.19;433630;1261;139571;-58
2023/08/13 02:15:03;;;;;;;5.40;3.70;;;;;;;18.56;64.81;99559.14;433826;1260;138879;-58
2023/08/13 02:25:09;;;;;;;5.20;3.90;;;;;;;18.43;65.46;99556.45;433814;1260;141289;-59
2023/08/13 02:35:15;;;;;;;4.50;4.10;;;;;;;18.30;65.90;99558.71;434164;1261;139841;-58
2023/08/13 02:45:21;;;;;;;3.40;3.10;;;;;;;18.21;66.32;99557.80;433844;1260;140347;-59
2023/08/13 02:55:27;;;;;;;5.20;4.00;;;;;;;18.11;67.02;99558.22;433862;1260;140430;-58
2023/08/13 03:05:33;;;;;;;5.80;3.70;;;;;;;17.95;67.55;99548.97;434240;1260;139837;-60
2023/08/13 03:15:39;;;;;;;4.30;3.60;;;;;;;17.87;68.26;99553.75;434497;1257;139360;-59
2023/08/13 03:25:44;;;;;;;4.40;4.00;;;;;;;17.89;68.70;99550.02;433779;1258;140426;-59
2023/08/13 03:35:50;;;;;;;4.40;3.60;;;;;;;17.95;68.73;99548.21;434253;1257;139314;-59
2023/08/13 03:45:56;;;;;;;4.90;3.70;;;;;;;18.04;68.74;99549.14;434268;1260;139831;-59
2023/08/13 03:56:05;;;;;;;6.90;4.90;;;;;;;18.14;69.20;99547.03;434099;1260;139057;-58
2023/08/13 04:06:10;;;;;;;4.90;4.20;;;;;;;18.27;69.49;99548.60;434188;1260;139256;-58
2023/08/13 04:16:16;;;;;;;4.60;3.70;;;;;;;18.46;69.65;99551.00;433918;1257;139213;-59
2023/08/13 04:26:22;;;;;;;5.80;3.70;;;;;;;18.60;69.63;99548.73;433892;1258;140087;-59
2023/08/13 04:36:28;;;;;;;4.30;3.90;;;;;;;18.75;69.99;99548.73;433897;1257;139460;-59
2023/08/13 04:46:34;;;;;;;6.20;2.90;;;;;;;18.95;69.61;99553.97;433756;1256;140618;-59
2023/08/13 04:56:40;;;;;;;4.40;4.00;;;;;;;19.16;69.05;99565.23;433760;1259;139943;-60
2023/08/13 05:06:45;;;;;;;6.20;3.30;;;;;;;19.57;68.83;99571.55;434026;1260;139317;-59
2023/08/13 05:16:51;;;;;;;7.80;3.40;;;;;;;20.11;68.09;99576.02;434263;1259;140645;-59
2023/08/13 05:26:57;;;;;;;4.00;3.70;;;;;;;21.09;66.98;99572.16;433994;1258;139283;-58
2023/08/13 05:37:03;;;;;;;5.60;2.80;;;;;;;23.36;65.40;99573.32;434131;1258;140628;-60
2023/08/13 05:47:09;;;;;;;3.70;2.70;;;;;;;24.22;60.03;99578.79;434329;1257;138883;-58
2023/08/13 05:57:18;;;;;;;4.10;2.80;;;;;;;24.04;59.06;99581.95;434387;1258;138343;-59
2023/08/13 06:07:24;;;;;;;2.70;2.50;;;;;;;24.37;58.72;99585.46;434087;1256;138781;-58
2023/08/13 06:17:30;;;;;;;2.40;2.10;;;;;;;25.71;57.03;99587.21;434103;1256;140027;-59
2023/08/13 06:27:36;;;;;;;2.30;2.20;;;;;;;28.82;56.31;99588.86;434116;1260;139951;-59
2023/08/13 06:37:42;;;;;;;2.10;1.90;;;;;;;35.97;47.53;99586.02;434489;1260;138280;-58
2023/08/13 06:48:09;;;;;;;4.10;2.30;;;;;;;37.61;40.71;99578.20;434148;1260;138235;-58
2023/08/13 06:58:14;;;;;;;2.90;2.60;;;;;;;41.23;36.06;99579.79;434534;1257;138542;-60
2023/08/13 07:08:21;;;;;;;3.30;2.00;;;;;;;46.05;31.54;99586.41;433921;1260;139295;-59
2023/08/13 07:18:27;;;;;;;2.20;1.80;;;;;;;50.50;26.59;99587.27;434248;1260;138760;-61
2023/08/13 07:28:34;;;;;;;3.20;2.20;;;;;;;51.39;23.10;99585.45;434233;1258;138943;-60
2023/08/13 07:38:40;;;;;;;2.10;1.90;;;;;;;48.69;22.59;99583.61;434231;1256;139105;-60
2023/08/13 07:48:47;;;;;;;4.20;2.10;;;;;;;47.66;23.21;99595.84;434100;1260;138159;-59
2023/08/13 07:58:53;;;;;;;2.20;2.00;;;;;;;47.30;22.97;99601.58;434980;1259;138436;-60
2023/08/13 08:08:59;;;;;;;3.40;2.80;;;;;;;46.71;22.65;99600.70;434741;1256;138493;-59
2023/08/13 08:19:05;;;;;;;3.00;2.00;;;;;;;45.04;23.76;99610.41;434000;1260;138672;-59
2023/08/13 08:29:11;;;;;;;2.20;2.00;;;;;;;44.52;24.07;99614.69;434187;1256;138770;-59
2023/08/13 08:39:18;;;;;;;4.60;2.30;;;;;;;41.51;25.12;99615.21;433852;1260;138710;-59
2023/08/13 08:49:25;;;;;;;2.20;2.00;;;;;;;38.48;27.83;99610.08;434190;1259;138072;-59
2023/08/13 08:59:31;;;;;;;3.40;2.20;;;;;;;36.85;29.77;99610.07;434146;1256;138681;-59
2023/08/13 09:09:37;;;;;;;1.80;1.70;;;;;;;35.66;31.58;99611.97;433996;1256;138409;-58
2023/08/13 09:19:43;;;;;;;2.50;2.30;;;;;;;34.90;32.80;99612.74;435353;1258;139346;-60
2023/08/13 09:29:53;;;;;;;;;;;;;;;34.10;33.99;99602.65;433956;1256;138625;-59
2023/08/13 09:39:58;;;;;;;2.60;1.80;;;;;;;33.50;34.87;99600.59;434368;1259;126403;-57
2023/08/13 09:50:06;;;;;;;2.00;1.90;;;;;;;32.84;35.75;99602.67;434018;1256;139168;-58
2023/08/13 10:00:14;;;;;;;2.10;2.00;;;;;;;32.43;36.62;99606.30;434460;1257;138717;-58
2023/08/13 10:10:20;;;;;;;2.30;2.10;;;;;;;32.53;37.03;99602.63;433981;1256;139695;-59
2023/08/13 10:20:27;;;;;;;1.90;1.80;;;;;;;32.74;37.32;99603.98;433932;1256;138505;-59
2023/08/13 10:30:33;;;;;;;1.40;1.30;;;;;;;32.68;37.61;99605.33;434465;1259;138737;-58
2023/08/13 10:40:57;;;;;;;2.20;1.50;;;;;;;32.44;37.54;99606.91;434613;1256;139100;-58
2023/08/13 10:51:03;;;;;;;2.60;1.60;;;;;;;32.43;37.88;99614.46;433940;1256;138614;-58
2023/08/13 11:01:16;;;;;;;1.90;1.60;;;;;;;32.93;37.40;99618.92;434096;1256;138716;-58
2023/08/13 11:11:23;;;;;;;2.40;1.60;;;;;;;33.13;36.94;99623.29;434222;1260;139561;-58
2023/08/13 11:21:29;;;;;;;1.80;1.70;;;;;;;33.11;36.98;99624.73;434039;1255;138727;-59
2023/08/13 11:31:38;;;;;;;2.20;2.00;;;;;;;33.03;37.82;99619.59;433089;1256;139145;-59
2023/08/13 11:41:45;;;;;;;2.60;2.00;;;;;;;32.71;38.11;99609.46;433614;1259;138579;-59
2023/08/13 11:51:51;;;;;;;2.80;2.30;;;;;;;32.22;38.80;99605.23;434334;1255;139338;-59
2023/08/13 12:01:58;;;;;;;4.20;2.40;;;;;;;31.76;39.48;99610.64;433824;1256;139082;-59
2023/08/13 12:12:04;;;;;;;2.40;2.20;;;;;;;31.85;39.71;99613.77;434347;1256;138168;-59
2023/08/13 12:22:10;;;;;;;2.40;2.20;;;;;;;31.96;40.04;99618.46;433867;1256;138642;-59
2023/08/13 12:32:16;;;;;;;3.90;3.30;;;;;;;32.09;40.08;99614.20;433739;1259;138648;-62
2023/08/13 12:42:22;;;;;;;2.90;2.30;;;;;;;31.88;40.26;99609.54;434488;1256;138450;-58
2023/08/13 12:52:28;;;;;;;2.50;2.40;;;;;;;31.47;40.92;99607.66;434062;1259;138710;-58
2023/08/13 13:02:34;;;;;;;3.30;2.00;;;;;;;31.14;41.45;99604.50;434008;1259;139894;-58
2023/08/13 13:12:40;;;;;;;1.60;1.30;;;;;;;31.42;40.77;99603.85;434607;1256;139194;-59
2023/08/13 13:22:46;;;;;;;1.70;1.50;;;;;;;31.24;40.70;99609.44;434163;1260;138661;-58
2023/08/13 13:32:52;;;;;;;2.40;1.90;;;;;;;31.05;41.09;99602.31;433984;1256;139657;-58
2023/08/13 13:42:58;;;;;;;2.70;1.90;;;;;;;31.28;41.23;99597.69;433877;1256;139106;-59
2023/08/13 13:53:04;;;;;;;2.00;1.20;;;;;;;31.16;41.22;99589.09;433808;1259;138716;-59
2023/08/13 14:03:25;;;;;;;3.60;1.50;;;;;;;30.69;41.35;99596.22;433998;1260;139519;-58
2023/08/13 14:13:31;;;;;;;2.60;1.80;;;;;;;30.61;41.76;99590.20;436120;1256;140358;-58
2023/08/13 14:23:36;;;;;;;2.40;2.20;;;;;;;30.53;42.41;99598.23;434010;1260;138641;-58
2023/08/13 14:33:42;;;;;;;2.80;1.60;;;;;;;30.59;42.47;99599.48;433832;1259;139185;-58
2023/08/13 14:43:48;;;;;;;3.40;1.60;;;;;;;30.24;42.53;99597.34;433683;1260;139510;-59
2023/08/13 14:53:54;;;;;;;1.90;1.70;;;;;;;30.01;42.74;99596.46;434008;1256;138185;-59
2023/08/13 15:04:00;;;;;;;1.20;1.10;;;;;;;29.58;43.20;99598.19;434039;1260;139543;-58
2023/08/13 15:14:06;;;;;;;2.00;1.40;;;;;;;29.43;43.67;99603.73;436029;1256;139692;-58
2023/08/13 15:24:13;;;;;;;1.60;1.20;;;;;;;29.31;43.90;99604.86;433824;1261;139150;-58
2023/08/13 15:34:23;;;;;;;1.30;1.30;;;;;;;29.25;44.00;99605.55;433855;1260;138609;-58
2023/08/13 15:44:29;;;;;;;1.60;1.50;;;;;;;29.41;43.90;99601.13;433904;1260;140627;-58
2023/08/13 15:54:35;;;;;;;2.40;1.80;;;;;;;29.38;43.64;99593.63;433969;1256;138286;-58
2023/08/13 16:04:41;;;;;;;2.60;1.00;;;;;;;28.98;44.06;99579.55;434480;1256;138679;-58
2023/08/13 16:14:47;;;;;;;13.20;1.80;;;;;;;28.63;44.29;99583.86;433833;1260;138887;-59
2023/08/13 16:24:52;;;;;;;1.50;1.20;;;;;;;28.30;44.46;99589.57;433983;1256;138799;-59
2023/08/13 16:34:59;;;;;;;1.30;1.10;;;;;;;27.94;44.88;99594.42;434021;1256;138004;-58
2023/08/13 16:45:07;;;;;;;2.40;1.10;;;;;;;27.68;45.22;99597.16;434022;1260;138469;-58
2023/08/13 16:55:13;;;;;;;1.50;1.40;;;;;;;27.51;45.44;99599.78;433678;1259;138498;-58
2023/08/13 17:05:19;;;;;;;5.30;1.70;;;;;;;27.38;45.55;99601.30;434032;1260;138986;-58
2023/08/13 17:15:25;;;;;;;1.60;1.50;;;;;;;27.44;45.92;99598.63;434017;1261;138723;-58
2023/08/13 17:25:31;;;;;;;1.50;1.20;;;;;;;27.63;45.72;99604.09;434183;1257;138090;-59
2023/08/13 17:35:37;;;;;;;1.80;0.90;;;;;;;27.22;45.83;99609.09;434034;1259;138537;-58
2023/08/13 17:45:43;;;;;;;8.90;1.90;;;;;;;26.75;46.62;99616.83;433923;1259;138505;-58
2023/08/13 17:55:49;;;;;;;5.40;2.40;;;;;;;26.27;47.97;99639.39;433971;1260;138227;-60
2023/08/13 18:05:55;;;;;;;8.10;2.00;;;;;;;25.76;49.33;99653.62;433527;1260;138664;-58
2023/08/13 18:16:02;;;;;;;2.90;1.60;;;;;;;25.27;50.76;99663.66;433655;1256;139979;-59
2023/08/13 18:26:08;;;;;;;6.40;2.60;;;;;;;24.84;52.15;99671.24;433397;1260;139196;-58
2023/08/13 18:36:13;;;;;;;3.70;2.40;;;;;;;24.44;53.99;99681.48;433956;1261;138411;-58
2023/08/13 18:46:19;;;;;;;3.80;2.40;;;;;;;24.05;55.32;99693.42;433719;1260;138758;-60
2023/08/13 18:56:25;;;;;;;4.60;2.30;;;;;;;23.76;56.21;99699.30;433600;1259;138449;-58
2023/08/13 19:06:31;;;;;;;3.40;2.70;;;;;;;23.44;57.12;99707.66;433860;1260;139150;-59
2023/08/13 19:16:37;;;;;;;3.90;2.70;;;;;;;23.09;58.60;99713.88;433909;1256;138401;-59
2023/08/13 19:26:43;;;;;;;7.20;3.00;;;;;;;22.75;59.79;99715.88;434078;1257;139134;-59
2023/08/13 19:36:49;;;;;;;4.60;3.20;;;;;;;22.44;60.93;99719.86;434087;1257;139005;-60
2023/08/13 19:46:55;;;;;;;3.90;3.30;;;;;;;22.16;62.30;99725.86;434255;1260;140227;-58
2023/08/13 19:57:01;;;;;;;4.00;3.60;;;;;;;21.99;63.10;99723.92;434059;1262;139354;-58
2023/08/13 20:07:06;;;;;;;5.20;4.20;;;;;;;21.82;64.01;99714.92;433803;1256;139986;-59
2023/08/13 20:17:13;;;;;;;6.00;4.40;;;;;;;21.64;64.57;99719.23;434177;1257;139704;-60
2023/08/13 20:27:19;;;;;;;7.70;4.80;;;;;;;21.44;65.60;99715.98;434508;1261;139733;-60
2023/08/13 20:37:28;;;;;;;12.60;5.30;;;;;;;21.32;66.27;99712.40;433862;1260;139613;-58
2023/08/13 20:47:34;;;;;;;6.80;4.10;;;;;;;21.14;67.07;99713.31;433965;1260;139279;-58
2023/08/13 20:57:40;;;;;;;5.60;4.60;;;;;;;20.90;67.60;99723.80;433939;1260;139084;-59
2023/08/13 21:07:46;;;;;;;5.50;5.00;;;;;;;20.74;68.31;99726.89;434073;1261;139945;-59
2023/08/13 21:17:52;;;;;;;5.10;4.30;;;;;;;20.67;69.10;99719.23;435762;1260;138984;-59
2023/08/13 21:27:58;;;;;;;8.00;4.70;;;;;;;20.65;69.71;99717.66;434102;1260;140688;-59
2023/08/13 21:38:04;;;;;;;12.00;6.00;;;;;;;20.49;69.82;99715.92;433987;1260;139150;-59
2023/08/13 21:48:10;;;;;;;7.60;4.50;;;;;;;20.28;70.31;99710.46;434198;1260;139364;-59
2023/08/13 21:58:17;;;;;;;7.90;4.90;;;;;;;20.03;70.94;99717.19;434112;1262;140244;-58
2023/08/13 22:08:23;;;;;;;6.10;5.30;;;;;;;19.83;71.90;99719.25;434523;1260;139904;-58
2023/08/13 22:18:32;;;;;;;8.60;6.10;;;;;;;19.66;72.43;99720.59;434435;1262;140247;-59
2023/08/13 22:28:38;;;;;;;6.80;5.00;;;;;;;19.51;72.59;99730.16;433732;1260;140093;-58
2023/08/13 22:38:44;;;;;;;10.70;5.50;;;;;;;19.51;72.51;99732.41;433942;1258;140360;-58
2023/08/13 22:48:50;;;;;;;6.60;6.00;;;;;;;19.41;73.10;99742.35;433917;1257;138975;-59
2023/08/13 22:58:56;;;;;;;7.90;6.20;;;;;;;19.31;73.69;99756.52;433739;1255;139671;-58
2023/08/13 23:09:01;;;;;;;5.20;4.60;;;;;;;19.25;74.13;99751.59;433716;1260;140873;-59
2023/08/13 23:19:08;;;;;;;5.30;4.80;;;;;;;19.28;74.12;99747.20;433771;1260;138953;-59
2023/08/13 23:29:14;;;;;;;5.00;4.20;;;;;;;19.31;74.23;99740.69;433996;1260;139316;-58
2023/08/13 23:39:20;;;;;;;4.30;3.90;;;;;;;19.33;74.22;99738.89;434498;1260;139102;-59
2023/08/13 23:49:27;;;;;;;5.00;3.70;;;;;;;19.34;74.28;99734.70;433795;1257;139868;-58
2023/08/13 23:59:34;;;;;;;4.40;3.90;;;;;;;19.37;74.61;99727.54;433703;1258;277372;-59
